Time;durP1;ratioP1;P1;durP2;ratioP2;P2;SDS_P1;SDS_P2;PMS_P1;PMS_P2;Temp;Humidity;BMP_temperature;BMP_pressure;BME280_temperature;BME280_humidity;BME280_pressure;Samples;Min_cycle;Max_cycle;Signal;HPM_P1;HPM_P2
2022/05/20 00:01:52;;;;;;;4.53;3.40;;;25.10;53.70;;;;;;5089459;28;20425;-66
2022/05/20 00:04:17;;;;;;;5.30;3.40;;;25.00;53.50;;;;;;5091228;28;20386;-67
2022/05/20 00:06:43;;;;;;;4.95;3.47;;;25.10;53.60;;;;;;5091255;28;20386;-67
2022/05/20 00:09:09;;;;;;;4.63;3.20;;;25.10;53.80;;;;;;5089860;28;20401;-67
2022/05/20 00:11:35;;;;;;;4.30;3.30;;;25.00;53.70;;;;;;5089077;28;20908;-67
2022/05/20 00:14:01;;;;;;;4.65;3.30;;;25.10;53.80;;;;;;5089065;28;20751;-67
2022/05/20 00:16:29;;;;;;;4.55;3.15;;;25.00;53.80;;;;;;5091047;28;20394;-67
2022/05/20 00:18:55;;;;;;;4.50;3.50;;;25.00;53.70;;;;;;5089815;28;20397;-67
2022/05/20 00:21:20;;;;;;;4.35;2.97;;;25.00;53.70;;;;;;5091043;28;20392;-67
2022/05/20 00:23:46;;;;;;;4.17;3.40;;;25.00;53.70;;;;;;5090512;28;20482;-67
2022/05/20 00:26:12;;;;;;;4.47;3.35;;;25.00;53.70;;;;;;5090941;28;20405;-67
2022/05/20 00:28:37;;;;;;;4.27;3.07;;;25.00;53.70;;;;;;5089388;28;20386;-67
2022/05/20 00:31:09;;;;;;;4.80;3.10;;;25.00;53.60;;;;;;5089683;28;20397;-67
2022/05/20 00:33:37;;;;;;;4.40;3.20;;;25.00;53.80;;;;;;5089523;28;20489;-67
2022/05/20 00:36:04;;;;;;;3.50;3.00;;;25.00;53.60;;;;;;5090230;28;20445;-67
2022/05/20 00:38:30;;;;;;;3.80;2.90;;;25.00;53.60;;;;;;5093375;28;20386;-67
2022/05/20 00:40:58;;;;;;;3.88;2.88;;;25.00;53.60;;;;;;5093350;28;20408;-67
2022/05/20 00:43:26;;;;;;;3.30;2.90;;;25.00;53.60;;;;;;5094624;28;20723;-67
2022/05/20 00:46:38;;;;;;;3.83;2.90;;;24.90;53.50;;;;;;5092676;28;20387;-67
2022/05/20 00:49:15;;;;;;;4.60;3.33;;;25.00;53.50;;;;;;5091144;28;20398;-67
2022/05/20 00:51:52;;;;;;;4.95;3.30;;;25.00;53.50;;;;;;5093836;28;20463;-66
2022/05/20 00:54:26;;;;;;;4.95;3.50;;;25.00;53.40;;;;;;5094311;28;20898;-67
2022/05/20 00:57:03;;;;;;;4.13;3.30;;;24.90;53.40;;;;;;5094301;28;20867;-67
2022/05/20 00:59:30;;;;;;;4.03;2.90;;;24.90;53.40;;;;;;5094258;28;20385;-67
2022/05/20 01:02:00;;;;;;;3.90;2.83;;;24.90;53.30;;;;;;5093978;28;20391;-66
2022/05/20 01:04:26;;;;;;;3.65;2.90;;;24.90;53.30;;;;;;5092971;28;20402;-67
2022/05/20 01:06:53;;;;;;;3.93;2.80;;;24.90;53.30;;;;;;5094221;28;20397;-67
2022/05/20 01:09:19;;;;;;;4.00;3.03;;;24.90;53.30;;;;;;5093916;28;20418;-67
2022/05/20 01:11:44;;;;;;;4.18;3.20;;;24.90;53.20;;;;;;5091946;28;20417;-66
2022/05/20 01:14:11;;;;;;;4.53;3.00;;;24.90;53.30;;;;;;5093404;28;20401;-67
2022/05/20 01:16:37;;;;;;;4.97;2.70;;;24.80;53.20;;;;;;5092174;28;20755;-67
2022/05/20 01:19:07;;;;;;;3.78;2.78;;;24.90;53.30;;;;;;5093599;28;20415;-67
2022/05/20 01:21:33;;;;;;;3.80;2.80;;;24.90;53.20;;;;;;5093645;28;20777;-66
2022/05/20 01:23:59;;;;;;;3.50;2.80;;;24.90;53.20;;;;;;5093539;28;20439;-67
2022/05/20 01:26:25;;;;;;;3.47;2.88;;;24.80;53.20;;;;;;5093808;28;20873;-67
2022/05/20 01:28:51;;;;;;;3.17;2.77;;;24.80;53.20;;;;;;5092049;28;20379;-68
2022/05/20 01:31:17;;;;;;;3.20;2.60;;;24.80;53.30;;;;;;5093608;28;20393;-67
2022/05/20 01:33:49;;;;;;;3.50;2.70;;;24.80;53.30;;;;;;5091869;28;20374;-67
2022/05/20 01:36:19;;;;;;;4.13;2.72;;;24.80;53.20;;;;;;5093430;28;20425;-67
2022/05/20 01:38:45;;;;;;;3.55;2.90;;;24.80;53.10;;;;;;5093532;28;20579;-67
2022/05/20 01:41:31;;;;;;;3.20;2.50;;;24.80;53.20;;;;;;5093390;28;20476;-67
2022/05/20 01:44:04;;;;;;;4.57;2.60;;;24.80;53.20;;;;;;5092894;28;20447;-67
2022/05/20 01:46:57;;;;;;;3.53;2.58;;;24.80;53.10;;;;;;5092089;28;20473;-67
2022/05/20 01:49:32;;;;;;;3.57;2.40;;;24.80;53.10;;;;;;5091290;28;20874;-67
2022/05/20 01:52:17;;;;;;;5.15;2.70;;;24.80;53.10;;;;;;5092595;28;20466;-67
2022/05/20 01:55:03;;;;;;;4.00;2.75;;;24.80;53.10;;;;;;5093167;28;20406;-67
2022/05/20 01:57:31;;;;;;;3.47;2.60;;;24.80;53.10;;;;;;5091997;28;20398;-67
2022/05/20 02:00:10;;;;;;;4.75;2.55;;;24.80;53.00;;;;;;5091253;28;20394;-67
2022/05/20 02:02:48;;;;;;;3.50;2.40;;;24.80;53.00;;;;;;5093003;28;20413;-67
2022/05/20 02:05:43;;;;;;;3.55;2.60;;;24.80;53.00;;;;;;5091701;28;20410;-67
2022/05/20 02:08:44;;;;;;;3.35;2.25;;;24.70;53.00;;;;;;5056190;28;20390;-67
2022/05/20 02:11:18;;;;;;;3.60;2.47;;;24.70;52.90;;;;;;5092805;28;20384;-67
2022/05/20 02:13:48;;;;;;;2.80;2.30;;;24.70;52.90;;;;;;5092176;28;20382;-67
2022/05/20 02:16:30;;;;;;;2.97;2.50;;;24.80;53.00;;;;;;5092560;28;20856;-67
2022/05/20 02:19:09;;;;;;;3.00;2.33;;;24.70;52.90;;;;;;5092632;28;20435;-67
2022/05/20 02:21:41;;;;;;;3.13;2.30;;;24.70;52.90;;;;;;5092738;28;20390;-67
2022/05/20 02:24:12;;;;;;;2.80;2.40;;;24.70;52.90;;;;;;5092406;28;20378;-67
2022/05/20 02:26:45;;;;;;;3.22;2.50;;;24.70;52.90;;;;;;5092689;28;20390;-67
2022/05/20 02:29:21;;;;;;;2.90;2.20;;;24.70;52.80;;;;;;5091140;28;20425;-67
2022/05/20 02:31:59;;;;;;;3.75;2.28;;;24.70;52.90;;;;;;5091160;28;20389;-66
2022/05/20 02:34:25;;;;;;;2.72;2.10;;;24.70;52.80;;;;;;5092236;28;20398;-67
2022/05/20 02:36:50;;;;;;;3.38;2.20;;;24.70;52.80;;;;;;5092315;28;20394;-67
2022/05/20 02:39:16;;;;;;;4.13;2.30;;;24.70;52.80;;;;;;5092444;28;20854;-67
2022/05/20 02:41:46;;;;;;;2.80;2.30;;;24.70;52.80;;;;;;5092085;28;20858;-66
2022/05/20 02:44:12;;;;;;;3.20;2.10;;;24.60;52.80;;;;;;5092412;28;20378;-67
2022/05/20 02:46:39;;;;;;;2.92;2.10;;;24.70;52.80;;;;;;5092282;28;20399;-67
2022/05/20 02:49:05;;;;;;;3.35;2.15;;;24.60;52.70;;;;;;5092162;28;20378;-67
2022/05/20 02:51:31;;;;;;;2.78;2.22;;;24.70;52.80;;;;;;5092026;28;20905;-67
2022/05/20 02:53:56;;;;;;;4.00;2.08;;;24.60;52.70;;;;;;5090400;28;20398;-67
2022/05/20 02:56:22;;;;;;;2.83;2.05;;;24.60;52.80;;;;;;5091869;28;20460;-67
2022/05/20 03:04:17;;;;;;;2.40;2.20;;;24.60;52.70;;;;;;5091914;28;20773;-67
2022/05/20 03:06:50;;;;;;;3.17;2.47;;;24.60;52.80;;;;;;5091966;28;20412;-67
2022/05/20 03:09:19;;;;;;;3.58;2.17;;;24.60;52.90;;;;;;5090620;28;20444;-67
2022/05/20 03:11:45;;;;;;;3.83;2.30;;;24.60;52.80;;;;;;5091268;28;20385;-67
2022/05/20 03:14:13;;;;;;;4.22;2.30;;;24.60;53.00;;;;;;5091480;28;20394;-67
2022/05/20 03:16:40;;;;;;;3.90;2.35;;;24.60;52.90;;;;;;5091471;28;20379;-67
2022/05/20 03:19:06;;;;;;;4.85;2.40;;;24.60;52.90;;;;;;5091703;28;20447;-67
2022/05/20 03:21:33;;;;;;;3.90;2.35;;;24.60;52.60;;;;;;5090706;28;20425;-67
2022/05/20 03:24:02;;;;;;;5.38;2.10;;;24.60;53.20;;;;;;5091330;28;20394;-67
2022/05/20 03:26:29;;;;;;;4.25;2.13;;;24.60;53.70;;;;;;5091430;28;20445;-68
2022/05/20 03:28:55;;;;;;;5.28;2.28;;;24.70;53.20;;;;;;5089748;28;20547;-67
2022/05/20 03:31:21;;;;;;;7.03;2.20;;;24.70;53.70;;;;;;5090171;28;20477;-67
2022/05/20 03:33:46;;;;;;;7.63;2.17;;;24.70;53.20;;;;;;5091346;28;20489;-67
2022/05/20 03:36:14;;;;;;;5.68;2.20;;;24.70;53.30;;;;;;5091361;28;20557;-67
2022/05/20 03:38:39;;;;;;;3.75;2.05;;;24.70;54.40;;;;;;5091733;28;20390;-67
2022/05/20 03:41:07;;;;;;;5.33;2.30;;;24.70;53.40;;;;;;5091769;28;20390;-67
2022/05/20 03:43:33;;;;;;;6.15;2.20;;;24.80;54.20;;;;;;5092503;28;20385;-67
2022/05/20 03:45:59;;;;;;;4.00;2.30;;;24.80;53.90;;;;;;5090976;28;20393;-67
2022/05/20 03:48:26;;;;;;;3.40;2.20;;;24.80;54.10;;;;;;5089996;28;20866;-67
2022/05/20 03:50:52;;;;;;;4.32;2.22;;;24.80;53.90;;;;;;5091236;28;20418;-67
2022/05/20 03:53:18;;;;;;;3.83;2.00;;;24.80;54.10;;;;;;5091097;28;20390;-67
2022/05/20 03:55:44;;;;;;;5.93;2.13;;;24.70;53.50;;;;;;5090887;28;20493;-67
2022/05/20 03:58:10;;;;;;;4.47;2.08;;;24.80;53.50;;;;;;5089783;28;20493;-67
2022/05/20 04:01:56;;;;;;;4.75;2.10;;;24.80;53.80;;;;;;5090130;28;20758;-67
2022/05/20 04:03:22;;;;;;;5.72;2.10;;;24.80;53.70;;;;;;5090679;28;20743;-67
2022/05/20 04:05:48;;;;;;;4.78;2.10;;;24.70;53.50;;;;;;5089576;28;20394;-67
2022/05/20 04:08:13;;;;;;;3.92;2.22;;;24.70;53.50;;;;;;5090924;28;20410;-67
2022/05/20 04:10:39;;;;;;;4.07;1.90;;;24.70;53.50;;;;;;5091534;28;20473;-67
2022/05/20 04:13:06;;;;;;;6.00;2.00;;;24.80;53.20;;;;;;5094917;28;20488;-67
2022/05/20 04:15:31;;;;;;;4.18;1.90;;;24.70;53.90;;;;;;5095453;28;20412;-67
2022/05/20 04:17:57;;;;;;;6.40;2.10;;;24.80;52.80;;;;;;5092435;28;20465;-67
2022/05/20 04:20:23;;;;;;;4.37;2.00;;;24.80;53.40;;;;;;5093629;28;20405;-67
2022/05/20 04:22:48;;;;;;;2.80;1.90;;;24.70;52.50;;;;;;5094674;28;20396;-68
2022/05/20 04:25:14;;;;;;;6.17;1.90;;;24.80;52.20;;;;;;5093632;28;20405;-67
2022/05/20 04:27:40;;;;;;;8.13;1.87;;;24.80;52.10;;;;;;5093572;28;20390;-67
2022/05/20 04:30:07;;;;;;;2.97;1.77;;;24.70;52.10;;;;;;5092740;28;20390;-67
2022/05/20 04:32:32;;;;;;;4.25;1.50;;;24.70;51.70;;;;;;5100489;28;20414;-67
2022/05/20 04:34:58;;;;;;;4.30;1.67;;;24.70;51.60;;;;;;5106080;28;20802;-67
2022/05/20 04:37:25;;;;;;;5.22;1.90;;;24.70;51.40;;;;;;5107072;28;20436;-67
2022/05/20 04:39:51;;;;;;;3.15;1.80;;;24.70;51.50;;;;;;5106934;28;20487;-67
2022/05/20 04:47:45;;;;;;;8.80;1.90;;;24.70;51.40;;;;;;5114783;28;20379;-67
2022/05/20 04:50:12;;;;;;;4.03;1.83;;;24.60;52.10;;;;;;5113263;28;20392;-67
2022/05/20 04:52:37;;;;;;;3.97;1.60;;;24.70;51.70;;;;;;5114787;28;20396;-67
2022/05/20 04:55:04;;;;;;;4.07;1.60;;;24.60;51.60;;;;;;5114806;28;20411;-67
2022/05/20 04:57:32;;;;;;;3.03;1.60;;;24.70;51.90;;;;;;5114838;28;20388;-67
2022/05/20 05:00:18;;;;;;;5.40;1.50;;;24.60;51.60;;;;;;5114343;28;20383;-67
2022/05/20 05:02:44;;;;;;;7.32;1.83;;;24.60;51.90;;;;;;5113402;28;20449;-67
2022/05/20 05:05:12;;;;;;;4.40;1.90;;;24.60;51.90;;;;;;5113811;28;20392;-67
2022/05/20 05:07:44;;;;;;;9.63;2.30;;;24.70;52.50;;;;;;5114569;28;20418;-67
2022/05/20 05:10:11;;;;;;;20.25;2.40;;;24.70;53.30;;;;;;5112810;28;20399;-67
2022/05/20 05:12:36;;;;;;;11.20;2.42;;;24.70;54.30;;;;;;5114446;28;20433;-67
2022/05/20 05:15:03;;;;;;;10.63;2.13;;;24.80;55.00;;;;;;5113002;28;20797;-67
2022/05/20 05:20:22;;;;;;;6.90;1.80;;;24.90;55.00;;;;;;5113134;28;20453;-67
2022/05/20 05:22:49;;;;;;;8.00;2.00;;;24.90;54.50;;;;;;5113851;28;20857;-67
2022/05/20 05:25:16;;;;;;;6.00;1.80;;;25.00;54.80;;;;;;5113959;28;20442;-67
2022/05/20 05:27:42;;;;;;;5.35;1.90;;;25.00;55.10;;;;;;5113892;28;20888;-66
2022/05/20 05:30:11;;;;;;;8.10;1.80;;;25.00;55.60;;;;;;5113301;28;20389;-67
2022/05/20 05:32:38;;;;;;;5.30;1.83;;;25.00;55.40;;;;;;5113942;28;20380;-67
2022/05/20 05:35:07;;;;;;;6.10;1.80;;;25.10;55.40;;;;;;5112271;28;20958;-67
2022/05/20 05:37:34;;;;;;;4.97;1.77;;;25.00;55.40;;;;;;5113811;28;20384;-67
2022/05/20 05:39:59;;;;;;;4.57;1.73;;;25.00;55.20;;;;;;5112106;28;20477;-67
2022/05/20 05:42:25;;;;;;;5.77;1.80;;;25.10;55.10;;;;;;5112641;28;20497;-67
2022/05/20 05:44:53;;;;;;;5.10;1.70;;;25.10;54.90;;;;;;5113777;28;20396;-67
2022/05/20 05:47:18;;;;;;;6.10;1.90;;;25.10;54.60;;;;;;5107520;28;20390;-66
2022/05/20 05:49:44;;;;;;;4.07;1.80;;;25.10;53.50;;;;;;5092464;28;20408;-67
2022/05/20 05:52:09;;;;;;;6.60;1.73;;;25.00;52.90;;;;;;5090104;28;20398;-67
2022/05/20 05:54:35;;;;;;;3.13;1.77;;;25.00;53.00;;;;;;5092557;28;20409;-68
2022/05/20 05:57:02;;;;;;;5.40;1.60;;;25.00;53.40;;;;;;5092947;28;20393;-68
2022/05/20 05:59:28;;;;;;;3.43;1.47;;;25.00;52.90;;;;;;5065699;28;20804;-67
2022/05/20 06:02:01;;;;;;;5.20;1.60;;;25.00;52.90;;;;;;5092644;28;20408;-65
2022/05/20 06:04:27;;;;;;;4.93;1.70;;;25.00;53.00;;;;;;5092729;28;20383;-65
2022/05/20 06:06:54;;;;;;;6.53;1.73;;;25.00;53.00;;;;;;5092890;28;20402;-65
2022/05/20 06:09:23;;;;;;;7.43;1.85;;;25.00;53.50;;;;;;5092695;28;20926;-65
2022/05/20 06:11:49;;;;;;;3.83;1.80;;;25.10;53.50;;;;;;5092626;28;20450;-67
2022/05/20 06:14:16;;;;;;;4.07;1.65;;;25.00;53.50;;;;;;5092066;28;20443;-68
2022/05/20 06:16:42;;;;;;;4.80;1.80;;;25.10;53.50;;;;;;5092526;28;20436;-68
2022/05/20 06:19:08;;;;;;;6.70;2.92;;;25.10;54.10;;;;;;5092564;28;20382;-68
2022/05/20 06:21:34;;;;;;;9.47;2.90;;;25.30;53.60;;;;;;5074363;28;20481;-68
2022/05/20 06:24:01;;;;;;;5.88;2.40;;;25.30;53.50;;;;;;5074062;28;20438;-68
2022/05/20 06:26:32;;;;;;;7.63;2.17;;;25.30;53.70;;;;;;5092404;28;20382;-67
2022/05/20 06:28:58;;;;;;;9.70;2.50;;;25.30;53.40;;;;;;5092382;28;20385;-68
2022/05/20 06:31:24;;;;;;;5.45;2.28;;;25.30;53.50;;;;;;5092382;28;20386;-68
2022/05/20 06:33:50;;;;;;;4.50;2.08;;;25.30;53.60;;;;;;5073607;28;20432;-67
2022/05/20 06:41:45;;;;;;;4.13;1.80;;;25.30;53.60;;;;;;5092010;28;20433;-66
2022/05/20 06:44:12;;;;;;;4.60;1.90;;;25.30;53.60;;;;;;5091640;28;20383;-68
2022/05/20 06:46:37;;;;;;;3.33;1.85;;;25.30;53.30;;;;;;5092096;28;20447;-67
2022/05/20 06:49:03;;;;;;;3.03;2.20;;;25.30;53.60;;;;;;5092148;28;20390;-67
2022/05/20 06:51:31;;;;;;;4.22;1.80;;;25.30;53.60;;;;;;5091954;28;20410;-67
2022/05/20 06:54:00;;;;;;;2.92;2.00;;;25.30;53.60;;;;;;5091704;28;20378;-67
2022/05/20 06:56:30;;;;;;;3.92;1.90;;;25.30;53.90;;;;;;5073650;28;20425;-67
2022/05/20 06:58:57;;;;;;;2.40;1.70;;;25.30;53.90;;;;;;5091903;28;20465;-67
2022/05/20 07:01:23;;;;;;;4.10;1.88;;;25.40;53.90;;;;;;5091970;28;20379;-67
2022/05/20 07:03:49;;;;;;;3.03;1.75;;;25.30;53.40;;;;;;5091660;28;20792;-67
2022/05/20 07:06:16;;;;;;;3.85;1.98;;;25.30;53.20;;;;;;5090664;28;20394;-67
2022/05/20 07:08:48;;;;;;;2.97;1.67;;;25.30;53.10;;;;;;5091085;28;20386;-68
2022/05/20 07:11:14;;;;;;;3.03;1.70;;;25.30;53.10;;;;;;5091461;28;20413;-67
2022/05/20 07:13:40;;;;;;;4.38;1.80;;;25.30;52.80;;;;;;5089318;28;20377;-66
2022/05/20 07:16:06;;;;;;;5.93;1.80;;;25.30;52.90;;;;;;5069554;28;20435;-66
2022/05/20 07:18:34;;;;;;;4.03;1.90;;;25.30;53.20;;;;;;5069718;28;20404;-67
2022/05/20 07:21:00;;;;;;;3.10;1.80;;;25.30;53.20;;;;;;5071063;28;20847;-66
2022/05/20 07:23:28;;;;;;;3.60;1.58;;;25.30;53.20;;;;;;5069773;28;20482;-67
2022/05/20 07:25:54;;;;;;;3.80;1.60;;;25.30;52.90;;;;;;5051919;28;20395;-66
2022/05/20 07:28:19;;;;;;;2.63;1.70;;;25.30;52.80;;;;;;5069551;28;20375;-66
2022/05/20 07:30:45;;;;;;;5.20;1.80;;;25.30;52.90;;;;;;5070160;28;20484;-66
2022/05/20 07:33:11;;;;;;;4.78;1.90;;;25.40;52.40;;;;;;5051762;28;20427;-66
2022/05/20 07:35:38;;;;;;;5.18;1.92;;;25.40;53.40;;;;;;5051631;28;20977;-67
2022/05/20 07:38:05;;;;;;;6.10;1.90;;;25.40;53.20;;;;;;5068477;28;20392;-66
2022/05/20 07:40:30;;;;;;;5.40;2.05;;;25.50;54.30;;;;;;5069598;28;20400;-66
2022/05/20 07:42:56;;;;;;;9.10;2.10;;;25.50;54.60;;;;;;5069816;28;20376;-67
2022/05/20 07:45:22;;;;;;;5.13;2.10;;;25.50;54.80;;;;;;5072020;28;20391;-67
2022/05/20 07:47:49;;;;;;;5.22;2.13;;;25.50;54.50;;;;;;5072425;28;20410;-67
2022/05/20 07:50:15;;;;;;;4.25;1.85;;;25.50;54.60;;;;;;5072072;28;20888;-67
2022/05/20 07:55:34;;;;;;;5.32;2.00;;;25.50;54.20;;;;;;5089266;28;20428;-67
2022/05/20 07:58:02;;;;;;;5.10;2.00;;;25.50;53.90;;;;;;5094807;28;20378;-67
2022/05/20 08:00:28;;;;;;;5.53;1.92;;;25.50;53.90;;;;;;5094712;28;20613;-67
2022/05/20 08:02:59;;;;;;;3.95;2.00;;;25.50;53.70;;;;;;5093131;28;20477;-67
2022/05/20 08:05:26;;;;;;;5.53;1.85;;;25.50;53.60;;;;;;5094894;28;20429;-67
2022/05/20 08:08:00;;;;;;;5.82;1.80;;;25.50;53.90;;;;;;5095134;28;20413;-67
2022/05/20 08:10:28;;;;;;;4.90;1.80;;;25.50;54.40;;;;;;5093551;28;20427;-67
2022/05/20 08:12:55;;;;;;;6.35;2.10;;;25.50;54.60;;;;;;5095031;28;20382;-67
2022/05/20 08:15:22;;;;;;;4.80;2.00;;;25.50;54.40;;;;;;5087211;28;20416;-67
2022/05/20 08:17:49;;;;;;;4.13;1.80;;;25.50;54.50;;;;;;5100885;28;20392;-66
2022/05/20 08:20:22;;;;;;;3.20;1.80;;;25.60;55.10;;;;;;5094264;28;20374;-67
2022/05/20 08:22:49;;;;;;;5.33;2.00;;;25.50;53.50;;;;;;5094435;28;20386;-67
2022/05/20 08:25:15;;;;;;;3.05;1.70;;;25.50;53.80;;;;;;5094620;28;20469;-67
2022/05/20 08:27:41;;;;;;;3.85;1.80;;;25.50;53.90;;;;;;5094597;28;20791;-67
2022/05/20 08:30:16;;;;;;;2.83;1.70;;;25.50;53.70;;;;;;5094600;28;20386;-67
2022/05/20 08:32:42;;;;;;;3.60;1.67;;;25.50;53.40;;;;;;5094702;28;20468;-67
2022/05/20 08:35:10;;;;;;;5.17;1.93;;;25.50;53.30;;;;;;5094364;28;20417;-67
2022/05/20 08:37:40;;;;;;;3.80;1.77;;;25.50;53.20;;;;;;5094286;28;20382;-67
2022/05/20 08:40:13;;;;;;;4.05;1.73;;;25.50;54.00;;;;;;5092071;28;20398;-67
2022/05/20 08:42:40;;;;;;;5.60;2.00;;;25.50;54.70;;;;;;5094198;28;20385;-67
2022/05/20 08:45:06;;;;;;;3.58;1.83;;;25.50;54.50;;;;;;5094674;28;20425;-66
2022/05/20 08:47:38;;;;;;;3.38;1.80;;;25.50;54.40;;;;;;5094472;28;20387;-67
2022/05/20 08:50:08;;;;;;;3.05;1.70;;;25.50;54.50;;;;;;5094063;28;20499;-65
2022/05/20 08:52:34;;;;;;;3.03;1.80;;;25.60;54.70;;;;;;5094019;28;20410;-67
2022/05/20 08:55:00;;;;;;;3.15;1.85;;;25.60;54.50;;;;;;5093933;28;20408;-67
2022/05/20 08:57:28;;;;;;;3.30;1.63;;;25.60;53.80;;;;;;5093359;28;20408;-67
2022/05/20 08:59:55;;;;;;;3.45;1.65;;;25.60;53.60;;;;;;5093041;28;20432;-67
2022/05/20 09:02:21;;;;;;;2.60;1.80;;;25.60;53.40;;;;;;5092043;28;20394;-66
2022/05/20 09:04:49;;;;;;;3.27;1.90;;;25.50;53.30;;;;;;5092595;28;20388;-67
2022/05/20 09:07:17;;;;;;;2.83;1.60;;;25.50;53.10;;;;;;5090745;28;20870;-67
2022/05/20 09:09:46;;;;;;;5.13;1.95;;;25.50;52.90;;;;;;5092670;28;20706;-67
2022/05/20 09:12:32;;;;;;;2.50;1.70;;;25.50;52.80;;;;;;5092580;28;20397;-66
2022/05/20 09:18:11;;;;;;;2.65;1.83;;;25.50;53.10;;;;;;5091657;28;20397;-66
2022/05/20 09:20:45;;;;;;;2.67;1.87;;;25.60;53.10;;;;;;5091706;28;20382;-66
2022/05/20 09:23:13;;;;;;;4.93;1.65;;;25.60;53.00;;;;;;5090236;28;20410;-67
2022/05/20 09:25:48;;;;;;;5.37;1.77;;;25.50;52.80;;;;;;5092309;28;20758;-66
2022/05/20 09:28:19;;;;;;;3.80;1.67;;;25.60;52.80;;;;;;5090362;28;20398;-66
2022/05/20 09:30:50;;;;;;;3.40;1.80;;;25.50;52.50;;;;;;5092796;28;20397;-66
2022/05/20 09:33:24;;;;;;;3.40;1.75;;;25.50;52.60;;;;;;5092385;28;20743;-66
2022/05/20 09:35:57;;;;;;;3.58;1.80;;;25.50;52.50;;;;;;5090015;28;20470;-66
2022/05/20 09:39:05;;;;;;;4.75;1.88;;;25.50;52.40;;;;;;5090081;28;20394;-66
2022/05/20 09:41:31;;;;;;;4.70;1.90;;;25.50;52.00;;;;;;5080002;28;20439;-66
2022/05/20 09:43:59;;;;;;;3.92;1.92;;;25.50;52.00;;;;;;5091256;28;20394;-67
2022/05/20 09:46:45;;;;;;;3.20;1.80;;;25.50;51.80;;;;;;5090433;28;20447;-66
2022/05/20 09:49:19;;;;;;;7.70;1.80;;;25.50;51.70;;;;;;5089521;28;20382;-66
2022/05/20 09:51:58;;;;;;;4.13;1.67;;;25.50;51.80;;;;;;5091617;28;20398;-66
2022/05/20 09:54:32;;;;;;;3.43;1.93;;;25.50;51.70;;;;;;5089202;28;20433;-66
2022/05/20 09:57:14;;;;;;;3.05;2.00;;;25.50;51.50;;;;;;5090505;28;20420;-67
2022/05/20 10:00:01;;;;;;;4.07;1.80;;;25.50;51.50;;;;;;5090961;28;20382;-67
2022/05/20 10:02:41;;;;;;;2.88;1.80;;;25.50;51.50;;;;;;5089100;28;20382;-67
2022/05/20 10:05:30;;;;;;;3.15;1.90;;;25.50;51.40;;;;;;5088951;28;20845;-66
2022/05/20 10:08:29;;;;;;;3.20;1.80;;;25.50;51.20;;;;;;5090171;28;20389;-67
2022/05/20 10:11:19;;;;;;;3.47;1.80;;;25.50;51.30;;;;;;5088727;28;20394;-66
2022/05/20 10:14:06;;;;;;;3.03;1.90;;;25.50;51.30;;;;;;5090835;28;20392;-67
2022/05/20 10:16:55;;;;;;;2.45;1.70;;;25.50;51.20;;;;;;5086585;28;20996;-66
2022/05/20 10:19:39;;;;;;;2.55;1.60;;;25.50;51.20;;;;;;5090306;28;20428;-67
2022/05/20 10:22:14;;;;;;;2.85;1.60;;;25.50;51.20;;;;;;5092298;28;20532;-66
2022/05/20 10:25:09;;;;;;;2.50;1.63;;;25.50;51.10;;;;;;5092372;28;20478;-67
2022/05/20 10:28:07;;;;;;;2.58;1.70;;;25.50;51.20;;;;;;5074596;28;20390;-66
2022/05/20 10:33:27;;;;;;;2.42;1.63;;;25.50;51.10;;;;;;5092496;28;20408;-66
2022/05/20 10:36:19;;;;;;;2.60;1.80;;;25.50;51.00;;;;;;5092072;28;20421;-66
2022/05/20 10:39:01;;;;;;;2.08;1.80;;;25.50;51.10;;;;;;5092440;28;20871;-66
2022/05/20 10:41:37;;;;;;;2.13;1.60;;;25.50;51.10;;;;;;5092009;28;20396;-66
2022/05/20 10:50:24;;;;;;;2.40;1.50;;;25.50;51.00;;;;;;5091688;28;20381;-66
2022/05/20 10:53:26;;;;;;;2.28;1.60;;;25.50;50.90;;;;;;5090849;28;20398;-67
2022/05/20 10:56:21;;;;;;;2.42;1.60;;;25.50;51.00;;;;;;5089123;28;20418;-67
2022/05/20 10:58:59;;;;;;;1.90;1.50;;;25.50;50.90;;;;;;5088719;28;20407;-67
2022/05/20 11:01:26;;;;;;;2.78;1.90;;;25.50;51.00;;;;;;5089285;28;20410;-67
2022/05/20 11:04:34;;;;;;;2.23;1.73;;;25.50;50.80;;;;;;5090622;28;20539;-67
2022/05/20 11:07:00;;;;;;;3.10;1.75;;;25.50;50.80;;;;;;5008197;28;20413;-67
2022/05/20 11:09:51;;;;;;;2.10;1.53;;;25.50;50.80;;;;;;5073554;28;20443;-67
2022/05/20 11:12:35;;;;;;;2.10;1.80;;;25.50;50.70;;;;;;5087743;28;20466;-67
2022/05/20 11:15:09;;;;;;;2.08;1.70;;;25.50;50.70;;;;;;5088794;28;20405;-67
2022/05/20 11:18:00;;;;;;;2.40;1.63;;;25.50;50.70;;;;;;5088137;28;20394;-67
2022/05/20 11:20:58;;;;;;;2.40;1.65;;;25.50;50.70;;;;;;5088714;28;20401;-67
2022/05/20 11:23:47;;;;;;;2.05;1.65;;;25.50;50.60;;;;;;5089241;28;20813;-67
2022/05/20 11:26:43;;;;;;;2.15;1.63;;;25.50;50.60;;;;;;5087348;28;20389;-67
2022/05/20 11:29:28;;;;;;;1.97;1.70;;;25.50;50.50;;;;;;5088393;28;20897;-67
2022/05/20 11:32:05;;;;;;;2.00;1.80;;;25.50;50.50;;;;;;5087516;28;20432;-67
2022/05/20 11:34:45;;;;;;;1.90;1.70;;;25.50;50.50;;;;;;5089897;28;20381;-67
2022/05/20 11:37:59;;;;;;;1.70;1.50;;;25.60;50.50;;;;;;5088757;28;20394;-67
2022/05/20 11:40:24;;;;;;;1.92;1.60;;;25.60;50.40;;;;;;5044537;28;20394;-67
2022/05/20 11:43:16;;;;;;;2.20;1.85;;;25.50;50.30;;;;;;5089611;28;20519;-67
2022/05/20 11:46:26;;;;;;;2.07;1.80;;;25.60;50.40;;;;;;5088575;28;20477;-67
2022/05/20 11:48:57;;;;;;;2.20;1.70;;;25.50;50.30;;;;;;5086329;28;20394;-67
2022/05/20 11:51:49;;;;;;;2.00;1.70;;;25.60;50.30;;;;;;5089841;28;20592;-66
2022/05/20 11:54:47;;;;;;;2.10;1.90;;;25.60;50.30;;;;;;5087335;28;20862;-67
2022/05/20 11:57:18;;;;;;;2.00;1.70;;;25.50;50.20;;;;;;5089665;28;20732;-67
2022/05/20 12:00:02;;;;;;;2.22;1.80;;;25.60;50.20;;;;;;5089881;28;20821;-66
2022/05/20 12:02:30;;;;;;;1.90;1.70;;;25.60;50.20;;;;;;5088406;28;20766;-67
2022/05/20 12:04:58;;;;;;;1.95;1.63;;;25.60;50.20;;;;;;5085746;28;20389;-66
2022/05/20 12:07:25;;;;;;;2.05;1.73;;;25.60;50.20;;;;;;5089621;28;20612;-67
2022/05/20 12:09:58;;;;;;;2.58;1.90;;;25.60;50.20;;;;;;5088230;28;20410;-67
2022/05/20 12:12:49;;;;;;;2.30;1.85;;;25.60;50.10;;;;;;5089383;28;21020;-67
2022/05/20 12:15:20;;;;;;;2.15;1.80;;;25.60;50.10;;;;;;5089610;28;20410;-67
2022/05/20 12:17:49;;;;;;;2.45;1.90;;;25.60;50.00;;;;;;5088340;28;20429;-67
2022/05/20 12:26:05;;;;;;;2.53;1.90;;;25.70;50.00;;;;;;5088276;28;20380;-67
2022/05/20 12:28:34;;;;;;;2.17;1.98;;;25.60;49.90;;;;;;5087603;28;20476;-67
2022/05/20 12:31:22;;;;;;;2.00;1.70;;;25.70;50.00;;;;;;5088369;28;20441;-67
2022/05/20 12:34:15;;;;;;;2.10;1.80;;;25.70;49.90;;;;;;5090943;28;20409;-67
2022/05/20 12:36:42;;;;;;;1.90;1.70;;;25.70;49.90;;;;;;5090032;28;20924;-67
2022/05/20 12:39:08;;;;;;;2.33;1.80;;;25.70;49.90;;;;;;5093164;28;20386;-67
2022/05/20 12:41:47;;;;;;;2.17;1.70;;;25.70;49.80;;;;;;5093487;28;20382;-66
2022/05/20 12:44:15;;;;;;;2.00;1.80;;;25.70;49.80;;;;;;5092855;28;20380;-67
2022/05/20 12:46:57;;;;;;;2.30;1.90;;;25.70;49.80;;;;;;5091765;28;20401;-67
2022/05/20 12:49:27;;;;;;;2.10;1.90;;;25.70;49.80;;;;;;5093627;28;20398;-66
2022/05/20 12:52:06;;;;;;;2.10;1.90;;;25.70;49.70;;;;;;5092724;28;20750;-66
2022/05/20 12:54:37;;;;;;;2.20;2.00;;;25.70;49.70;;;;;;5092838;28;20396;-66
2022/05/20 12:57:06;;;;;;;2.10;1.73;;;25.70;49.70;;;;;;5094276;28;20394;-66
2022/05/20 12:59:33;;;;;;;3.42;1.90;;;25.70;49.70;;;;;;5093312;28;20523;-66
2022/05/20 13:02:04;;;;;;;3.10;1.80;;;25.70;49.70;;;;;;5094401;28;20386;-66
2022/05/20 13:04:41;;;;;;;2.50;1.85;;;25.70;49.80;;;;;;5092635;28;20984;-66
2022/05/20 13:07:16;;;;;;;3.90;2.20;;;25.70;49.80;;;;;;5094344;28;20393;-66
2022/05/20 13:09:42;;;;;;;2.50;1.85;;;25.70;49.80;;;;;;5092703;28;20933;-66
2022/05/20 13:12:18;;;;;;;2.93;2.00;;;25.60;49.70;;;;;;5094188;28;20479;-66
2022/05/20 13:14:45;;;;;;;3.05;1.85;;;25.70;49.80;;;;;;5093932;28;20410;-66
2022/05/20 13:17:11;;;;;;;3.65;1.80;;;25.60;49.80;;;;;;5092802;28;20496;-66
2022/05/20 13:19:42;;;;;;;3.10;1.98;;;25.60;49.80;;;;;;5094179;28;20386;-66
2022/05/20 13:22:12;;;;;;;2.08;1.80;;;25.60;49.80;;;;;;5093976;28;20397;-67
2022/05/20 13:24:38;;;;;;;2.75;2.17;;;25.60;49.80;;;;;;5093915;28;20386;-66
2022/05/20 13:27:07;;;;;;;3.22;1.90;;;25.60;49.80;;;;;;5093859;28;20397;-66
2022/05/20 13:29:33;;;;;;;2.35;2.00;;;25.60;49.80;;;;;;5093897;28;20374;-66
2022/05/20 13:32:17;;;;;;;2.40;1.92;;;25.60;49.80;;;;;;5093735;28;20417;-66
2022/05/20 13:34:45;;;;;;;2.08;1.88;;;25.60;49.90;;;;;;5093462;28;22295;-66
2022/05/20 13:37:13;;;;;;;4.95;2.10;;;25.60;49.80;;;;;;5093765;28;20401;-66
2022/05/20 13:39:41;;;;;;;4.53;1.92;;;25.60;49.90;;;;;;5093643;28;20386;-66
2022/05/20 13:42:16;;;;;;;4.70;2.20;;;25.60;50.00;;;;;;5093586;28;20386;-66
2022/05/20 13:44:44;;;;;;;3.87;2.03;;;25.60;50.10;;;;;;5091802;28;20473;-66
2022/05/20 13:50:00;;;;;;;7.43;2.30;;;25.60;50.10;;;;;;5073135;28;21140;-67
2022/05/20 13:52:27;;;;;;;7.15;2.60;;;25.60;50.40;;;;;;5072777;28;20415;-67